createdAt,value
2018-07-27T00:01:22.843Z,26.30
2018-07-27T00:03:55.807Z,25.90
2018-07-27T00:06:28.946Z,25.80
2018-07-27T00:09:02.777Z,25.60
2018-07-27T00:11:35.785Z,25.40
2018-07-27T00:14:08.849Z,25.60
2018-07-27T00:16:42.007Z,25.90
2018-07-27T00:19:15.006Z,26.10
2018-07-27T00:21:48.091Z,26.20
2018-07-27T00:24:21.156Z,26.30
2018-07-27T00:26:54.104Z,26.50
2018-07-27T00:29:28.289Z,26.60
2018-07-27T00:32:01.226Z,26.70
2018-07-27T00:34:35.475Z,26.80
2018-07-27T00:37:13.519Z,26.90
2018-07-27T00:42:41.672Z,27.30
2018-07-27T00:45:24.038Z,27.60
2018-07-27T00:48:07.635Z,27.50
2018-07-27T00:50:49.134Z,27.40
2018-07-27T00:53:33.727Z,27.40
2018-07-27T00:56:31.125Z,27.30
2018-07-27T00:59:22.991Z,27.30
2018-07-27T01:02:06.717Z,27.30
2018-07-27T01:04:56.704Z,27.40
2018-07-27T01:07:40.112Z,27.40
2018-07-27T01:13:30.676Z,27.30
2018-07-27T01:16:25.222Z,27.20
2018-07-27T01:19:14.092Z,27.20
2018-07-27T01:22:00.097Z,27.20
2018-07-27T01:24:49.333Z,27.20
2018-07-27T01:27:38.331Z,27.20
2018-07-27T01:30:22.818Z,27.10
2018-07-27T01:33:11.565Z,27.20
2018-07-27T01:36:05.009Z,27.10
2018-07-27T01:38:47.784Z,27.10
2018-07-27T01:41:30.747Z,27.10
2018-07-27T01:44:20.142Z,27.10
2018-07-27T01:46:54.130Z,27.10
2018-07-27T01:52:00.518Z,27.10
2018-07-27T01:54:34.240Z,27.10
2018-07-27T01:57:07.809Z,27.10
2018-07-27T01:59:40.903Z,27.10
2018-07-27T02:04:46.085Z,27.20
2018-07-27T02:07:19.094Z,27.20
2018-07-27T02:09:52.199Z,27.30
2018-07-27T02:12:25.345Z,27.20
2018-07-27T02:14:58.312Z,27.20
2018-07-27T02:17:31.427Z,27.20
2018-07-27T02:20:04.370Z,27.20
2018-07-27T02:22:37.604Z,27.20
2018-07-27T02:25:10.738Z,27.20
2018-07-27T02:27:43.787Z,27.20
2018-07-27T02:30:16.835Z,27.20
2018-07-27T02:32:50.023Z,27.20
2018-07-27T02:35:24.166Z,27.20
2018-07-27T02:37:57.111Z,27.20
2018-07-27T02:40:30.125Z,27.20
2018-07-27T02:43:03.267Z,27.20
2018-07-27T02:45:37.829Z,27.20
2018-07-27T02:48:10.857Z,27.20
2018-07-27T02:50:44.332Z,27.20
2018-07-27T02:53:17.314Z,27.20
2018-07-27T02:55:51.255Z,27.20
2018-07-27T02:58:24.299Z,27.30
2018-07-27T03:00:57.908Z,27.30
2018-07-27T03:03:30.868Z,27.30
2018-07-27T03:06:03.872Z,27.30
2018-07-27T03:08:36.920Z,27.30
2018-07-27T03:11:09.955Z,27.30
2018-07-27T03:13:42.912Z,27.30
2018-07-27T03:16:16.735Z,27.30
2018-07-27T03:18:49.650Z,27.40
2018-07-27T03:21:22.613Z,27.40
2018-07-27T03:23:56.675Z,27.40
2018-07-27T03:26:30.626Z,27.40
2018-07-27T03:29:03.985Z,27.40
2018-07-27T03:31:37.082Z,27.40
2018-07-27T03:34:10.197Z,27.40
2018-07-27T03:36:43.242Z,27.40
2018-07-27T03:39:16.390Z,27.40
2018-07-27T03:41:50.022Z,27.40
2018-07-27T03:44:22.987Z,27.40
2018-07-27T03:49:27.606Z,27.40
2018-07-27T03:52:00.646Z,27.50
2018-07-27T03:54:33.715Z,27.50
2018-07-27T03:57:06.745Z,27.50
2018-07-27T03:59:40.025Z,27.60
2018-07-27T04:02:13.130Z,27.90
2018-07-27T04:04:46.145Z,28.00
2018-07-27T04:07:19.226Z,28.00
2018-07-27T04:09:52.174Z,27.90
2018-07-27T04:12:26.847Z,27.80
2018-07-27T04:14:59.815Z,27.80
2018-07-27T04:17:32.835Z,27.80
2018-07-27T04:20:06.687Z,27.80
2018-07-27T04:22:39.640Z,27.80
2018-07-27T04:25:12.678Z,27.80
2018-07-27T04:27:45.728Z,27.80
2018-07-27T04:30:18.890Z,27.80
2018-07-27T04:32:53.861Z,27.80
2018-07-27T04:35:26.849Z,27.80
2018-07-27T04:37:59.839Z,27.80
2018-07-27T04:40:32.935Z,27.80
2018-07-27T04:43:07.528Z,27.80
2018-07-27T04:45:40.621Z,27.90
2018-07-27T04:48:13.802Z,27.90
2018-07-27T04:50:46.860Z,27.90
2018-07-27T04:53:20.107Z,27.90
2018-07-27T04:55:53.813Z,27.90
2018-07-27T13:37:14.886Z,29.00
2018-07-27T13:42:22.216Z,28.90
2018-07-27T13:44:56.356Z,29.00
2018-07-27T13:47:29.552Z,29.00
2018-07-27T13:50:02.554Z,29.00
2018-07-27T13:52:36.215Z,29.00
2018-07-27T13:55:09.322Z,29.00
2018-07-27T13:57:42.353Z,29.00
2018-07-27T14:00:15.316Z,29.00
2018-07-27T14:02:48.275Z,29.00
2018-07-27T14:05:21.683Z,29.00
2018-07-27T14:07:54.839Z,29.00
2018-07-27T14:10:29.556Z,29.00
2018-07-27T14:13:03.432Z,29.00
2018-07-27T14:15:36.434Z,29.00
2018-07-27T14:18:09.647Z,28.90
2018-07-27T14:20:43.610Z,28.90
2018-07-27T14:23:16.683Z,28.90
2018-07-27T14:25:49.735Z,28.70
2018-07-27T14:28:22.748Z,28.70
2018-07-27T14:30:55.728Z,28.80
2018-07-27T14:33:28.779Z,28.80
2018-07-27T14:36:01.885Z,28.90
2018-07-27T14:38:35.016Z,29.00
2018-07-27T14:41:08.805Z,29.00
2018-07-27T14:43:41.793Z,28.90
2018-07-27T14:46:15.093Z,28.80
2018-07-27T14:48:48.170Z,28.80
2018-07-27T14:51:21.252Z,28.70
2018-07-27T14:53:55.098Z,28.80
2018-07-27T14:56:28.120Z,28.80
2018-07-27T14:59:01.115Z,28.80
2018-07-27T15:01:34.205Z,28.80
2018-07-27T15:04:08.230Z,28.80
2018-07-27T15:06:41.770Z,28.80
2018-07-27T15:09:16.438Z,28.80
2018-07-27T15:11:49.463Z,28.80
2018-07-27T15:14:22.468Z,28.70
2018-07-27T15:16:55.568Z,28.80
2018-07-27T15:19:28.611Z,28.80
2018-07-27T15:22:01.534Z,28.80
2018-07-27T15:24:36.114Z,28.80
2018-07-27T15:27:09.194Z,28.90
2018-07-27T15:29:42.174Z,28.80
2018-07-27T15:32:15.470Z,28.80
2018-07-27T15:34:48.618Z,28.80
2018-07-27T15:37:21.950Z,28.80
2018-07-27T15:39:54.975Z,28.80
2018-07-27T15:42:28.872Z,28.80
2018-07-27T15:45:01.857Z,28.80
2018-07-27T15:47:36.058Z,28.90
2018-07-27T15:50:09.770Z,28.90
2018-07-27T15:52:43.695Z,28.90
2018-07-27T15:55:17.158Z,28.70
2018-07-27T15:57:51.059Z,28.70
2018-07-27T16:00:24.097Z,28.60
2018-07-27T16:02:58.339Z,28.50
2018-07-27T16:05:34.765Z,28.50
2018-07-27T16:08:16.546Z,28.40
2018-07-27T16:10:53.545Z,28.30
2018-07-27T16:13:28.630Z,28.30
2018-07-27T16:16:02.389Z,28.30
2018-07-27T16:18:37.410Z,28.30
2018-07-27T16:21:22.753Z,28.30
2018-07-27T16:24:09.802Z,28.20
2018-07-27T16:26:44.181Z,28.10
2018-07-27T16:29:17.721Z,27.60
2018-07-27T16:31:52.595Z,27.30
2018-07-27T16:34:26.462Z,26.90
2018-07-27T16:36:59.427Z,26.70
2018-07-27T16:39:32.553Z,26.60
2018-07-27T16:42:05.557Z,26.50
2018-07-27T16:44:39.258Z,26.30
2018-07-27T16:47:12.314Z,26.20
2018-07-27T16:49:45.263Z,25.90
2018-07-27T16:52:18.228Z,25.80
2018-07-27T16:54:51.236Z,25.80
2018-07-27T16:57:25.009Z,25.60
2018-07-27T16:59:58.016Z,25.60
2018-07-27T17:02:32.207Z,26.00
2018-07-27T17:05:05.752Z,26.30
2018-07-27T17:07:38.754Z,26.20
2018-07-27T17:10:11.759Z,25.90
2018-07-27T17:12:44.835Z,25.70
2018-07-27T17:15:18.211Z,25.50
2018-07-27T17:17:51.188Z,25.50
2018-07-27T17:20:24.290Z,25.90
2018-07-27T17:22:58.631Z,26.30
2018-07-27T17:25:31.688Z,26.20
2018-07-27T17:28:05.157Z,25.90
2018-07-27T17:30:38.197Z,25.90
2018-07-27T17:33:12.417Z,26.10
2018-07-27T17:35:45.453Z,26.40
2018-07-27T17:38:18.772Z,26.40
2018-07-27T17:40:51.794Z,26.00
2018-07-27T17:43:24.802Z,25.70
2018-07-27T17:45:58.417Z,25.90
2018-07-27T17:48:31.389Z,26.10
2018-07-27T17:51:04.424Z,26.30
2018-07-27T17:53:37.446Z,26.00
2018-07-27T17:56:10.620Z,25.80
2018-07-27T17:58:45.058Z,25.90
2018-07-27T18:01:18.813Z,26.20
2018-07-27T18:03:52.345Z,26.30
2018-07-27T18:06:25.377Z,26.10
2018-07-27T18:08:58.460Z,25.80
2018-07-27T18:11:31.609Z,25.80
2018-07-27T18:14:04.603Z,26.00
2018-07-27T18:16:38.339Z,26.30
2018-07-27T18:19:11.395Z,26.10
2018-07-27T18:21:45.048Z,25.70
2018-07-27T18:24:18.148Z,26.00
2018-07-27T18:26:51.153Z,26.20
2018-07-27T18:29:24.479Z,26.20
2018-07-27T18:31:58.172Z,26.00
2018-07-27T18:34:32.235Z,26.10
2018-07-27T18:37:05.187Z,26.30
2018-07-27T18:39:38.218Z,26.30
2018-07-27T18:42:11.371Z,25.90
2018-07-27T18:44:44.527Z,26.00
2018-07-27T18:47:17.603Z,26.20
2018-07-27T18:49:50.606Z,26.30
2018-07-27T18:52:23.829Z,26.10
2018-07-27T18:54:56.972Z,26.10
2018-07-27T18:57:30.074Z,26.30
2018-07-27T19:00:04.978Z,26.40
2018-07-27T19:02:37.930Z,26.10
2018-07-27T19:05:11.440Z,26.00
2018-07-27T19:07:44.440Z,26.20
2018-07-27T19:10:17.442Z,26.30
2018-07-27T19:12:51.871Z,26.20
